sensor_id;sensor_type;location;lat;lon;timestamp;temperature;humidity
39951;DHT22;25629;51.444;-2.606;2023-07-08T00:01:50;22.90;99.90
39951;DHT22;25629;51.444;-2.606;2023-07-08T00:04:15;22.90;99.90
39951;DHT22;25629;51.444;-2.606;2023-07-08T00:06:41;22.90;99.90
39951;DHT22;25629;51.444;-2.606;2023-07-08T00:09:09;22.80;99.90
39951;DHT22;25629;51.444;-2.606;2023-07-08T00:11:35;22.70;99.90
39951;DHT22;25629;51.444;-2.606;2023-07-08T00:14:01;23.60;99.90
39951;DHT22;25629;51.444;-2.606;2023-07-08T00:16:27;22.70;99.90
39951;DHT22;25629;51.444;-2.606;2023-07-08T00:18:52;22.70;99.90
39951;DHT22;25629;51.444;-2.606;2023-07-08T00:21:18;22.70;99.90
39951;DHT22;25629;51.444;-2.606;2023-07-08T00:23:44;22.70;99.90
39951;DHT22;25629;51.444;-2.606;2023-07-08T00:26:24;22.70;99.90
39951;DHT22;25629;51.444;-2.606;2023-07-08T00:28:50;22.70;99.90
39951;DHT22;25629;51.444;-2.606;2023-07-08T00:31:16;22.70;99.90
39951;DHT22;25629;51.444;-2.606;2023-07-08T00:33:42;22.70;99.90
39951;DHT22;25629;51.444;-2.606;2023-07-08T00:36:09;22.30;99.90
39951;DHT22;25629;51.444;-2.606;2023-07-08T00:38:36;22.70;99.90
39951;DHT22;25629;51.444;-2.606;2023-07-08T00:46:00;22.60;99.90
39951;DHT22;25629;51.444;-2.606;2023-07-08T00:48:30;22.60;99.90
39951;DHT22;25629;51.444;-2.606;2023-07-08T00:50:55;22.60;99.90
39951;DHT22;25629;51.444;-2.606;2023-07-08T00:53:28;22.60;99.90
39951;DHT22;25629;51.444;-2.606;2023-07-08T00:56:04;22.60;99.90
39951;DHT22;25629;51.444;-2.606;2023-07-08T00:58:37;22.70;99.90
39951;DHT22;25629;51.444;-2.606;2023-07-08T01:01:05;22.70;99.90
39951;DHT22;25629;51.444;-2.606;2023-07-08T01:03:31;22.70;99.90
39951;DHT22;25629;51.444;-2.606;2023-07-08T01:05:58;22.70;99.90
39951;DHT22;25629;51.444;-2.606;2023-07-08T01:08:27;22.70;99.90
39951;DHT22;25629;51.444;-2.606;2023-07-08T01:10:59;22.70;99.90
39951;DHT22;25629;51.444;-2.606;2023-07-08T01:13:27;22.60;99.90
39951;DHT22;25629;51.444;-2.606;2023-07-08T01:15:53;22.60;99.90
39951;DHT22;25629;51.444;-2.606;2023-07-08T01:18:22;22.70;99.90
39951;DHT22;25629;51.444;-2.606;2023-07-08T01:20:50;22.60;99.90
39951;DHT22;25629;51.444;-2.606;2023-07-08T01:23:20;21.80;99.90
39951;DHT22;25629;51.444;-2.606;2023-07-08T01:25:46;22.60;99.90
39951;DHT22;25629;51.444;-2.606;2023-07-08T01:28:12;22.60;99.90
39951;DHT22;25629;51.444;-2.606;2023-07-08T01:30:38;22.60;99.90
39951;DHT22;25629;51.444;-2.606;2023-07-08T01:33:09;22.20;99.90
39951;DHT22;25629;51.444;-2.606;2023-07-08T01:35:37;22.50;99.90
39951;DHT22;25629;51.444;-2.606;2023-07-08T01:38:03;22.50;99.90
39951;DHT22;25629;51.444;-2.606;2023-07-08T01:40:32;22.50;99.90
39951;DHT22;25629;51.444;-2.606;2023-07-08T01:42:58;22.50;99.90
39951;DHT22;25629;51.444;-2.606;2023-07-08T01:45:25;21.70;99.90
39951;DHT22;25629;51.444;-2.606;2023-07-08T01:47:55;23.50;99.90
39951;DHT22;25629;51.444;-2.606;2023-07-08T01:50:24;22.40;99.90
39951;DHT22;25629;51.444;-2.606;2023-07-08T01:52:50;22.50;99.90
39951;DHT22;25629;51.444;-2.606;2023-07-08T01:55:21;22.40;99.90
39951;DHT22;25629;51.444;-2.606;2023-07-08T01:57:50;22.50;99.90
39951;DHT22;25629;51.444;-2.606;2023-07-08T02:00:16;22.30;99.90
39951;DHT22;25629;51.444;-2.606;2023-07-08T02:02:41;22.00;99.90
39951;DHT22;25629;51.444;-2.606;2023-07-08T02:05:07;22.40;99.90
39951;DHT22;25629;51.444;-2.606;2023-07-08T02:07:33;22.40;99.90
39951;DHT22;25629;51.444;-2.606;2023-07-08T02:10:01;22.40;99.90
39951;DHT22;25629;51.444;-2.606;2023-07-08T02:12:26;22.30;99.90
39951;DHT22;25629;51.444;-2.606;2023-07-08T02:14:52;22.30;99.90
39951;DHT22;25629;51.444;-2.606;2023-07-08T02:17:18;22.30;99.90
39951;DHT22;25629;51.444;-2.606;2023-07-08T02:19:46;22.20;99.90
39951;DHT22;25629;51.444;-2.606;2023-07-08T02:22:11;22.20;99.90
39951;DHT22;25629;51.444;-2.606;2023-07-08T02:24:40;22.20;99.90
39951;DHT22;25629;51.444;-2.606;2023-07-08T02:27:06;22.20;99.90
39951;DHT22;25629;51.444;-2.606;2023-07-08T02:29:31;22.20;99.90
39951;DHT22;25629;51.444;-2.606;2023-07-08T02:32:00;22.10;99.90
39951;DHT22;25629;51.444;-2.606;2023-07-08T02:34:25;22.10;99.90
39951;DHT22;25629;51.444;-2.606;2023-07-08T02:36:51;22.10;99.90
39951;DHT22;25629;51.444;-2.606;2023-07-08T02:39:17;22.10;99.90
39951;DHT22;25629;51.444;-2.606;2023-07-08T02:41:42;22.00;99.90
39951;DHT22;25629;51.444;-2.606;2023-07-08T02:44:08;22.00;99.90
39951;DHT22;25629;51.444;-2.606;2023-07-08T02:46:33;22.00;1.00
39951;DHT22;25629;51.444;-2.606;2023-07-08T02:48:59;22.00;1.00
39951;DHT22;25629;51.444;-2.606;2023-07-08T02:51:27;22.60;1.00
39951;DHT22;25629;51.444;-2.606;2023-07-08T02:53:53;21.90;1.00
39951;DHT22;25629;51.444;-2.606;2023-07-08T02:56:28;21.30;1.00
39951;DHT22;25629;51.444;-2.606;2023-07-08T02:58:58;21.80;1.00
39951;DHT22;25629;51.444;-2.606;2023-07-08T03:01:24;21.60;1.00
39951;DHT22;25629;51.444;-2.606;2023-07-08T03:03:52;21.80;1.00
39951;DHT22;25629;51.444;-2.606;2023-07-08T03:06:25;21.80;1.00
39951;DHT22;25629;51.444;-2.606;2023-07-08T03:08:54;21.60;1.00
39951;DHT22;25629;51.444;-2.606;2023-07-08T03:11:19;21.80;1.00
39951;DHT22;25629;51.444;-2.606;2023-07-08T03:13:45;21.70;1.00
39951;DHT22;25629;51.444;-2.606;2023-07-08T03:16:11;23.10;1.00
39951;DHT22;25629;51.444;-2.606;2023-07-08T03:18:39;21.70;1.00
39951;DHT22;25629;51.444;-2.606;2023-07-08T03:21:11;21.60;1.00
39951;DHT22;25629;51.444;-2.606;2023-07-08T03:23:40;21.60;5.20
39951;DHT22;25629;51.444;-2.606;2023-07-08T03:26:29;21.60;8.10
39951;DHT22;25629;51.444;-2.606;2023-07-08T03:28:54;21.50;46.90
39951;DHT22;25629;51.444;-2.606;2023-07-08T03:31:20;21.60;63.40
39951;DHT22;25629;51.444;-2.606;2023-07-08T03:33:45;21.50;94.70
39951;DHT22;25629;51.444;-2.606;2023-07-08T03:36:12;21.50;99.90
39951;DHT22;25629;51.444;-2.606;2023-07-08T03:38:48;21.50;99.90
39951;DHT22;25629;51.444;-2.606;2023-07-08T03:41:14;21.40;99.90
39951;DHT22;25629;51.444;-2.606;2023-07-08T03:43:40;21.40;99.90
39951;DHT22;25629;51.444;-2.606;2023-07-08T03:46:07;21.40;99.90
39951;DHT22;25629;51.444;-2.606;2023-07-08T03:48:32;21.30;99.90
39951;DHT22;25629;51.444;-2.606;2023-07-08T03:50:58;21.40;99.90
39951;DHT22;25629;51.444;-2.606;2023-07-08T03:53:24;21.40;99.90
39951;DHT22;25629;51.444;-2.606;2023-07-08T03:55:49;21.30;1.00
39951;DHT22;25629;51.444;-2.606;2023-07-08T03:58:15;21.40;1.00
39951;DHT22;25629;51.444;-2.606;2023-07-08T04:00:43;21.40;1.00
39951;DHT22;25629;51.444;-2.606;2023-07-08T04:03:10;21.40;1.00
39951;DHT22;25629;51.444;-2.606;2023-07-08T04:05:36;21.50;24.30
39951;DHT22;25629;51.444;-2.606;2023-07-08T04:08:02;21.30;57.10
39951;DHT22;25629;51.444;-2.606;2023-07-08T04:10:28;21.40;99.90
39951;DHT22;25629;51.444;-2.606;2023-07-08T04:12:53;21.40;99.90
39951;DHT22;25629;51.444;-2.606;2023-07-08T04:15:19;21.40;99.90
39951;DHT22;25629;51.444;-2.606;2023-07-08T04:17:50;21.40;99.90
39951;DHT22;25629;51.444;-2.606;2023-07-08T04:20:17;21.50;99.90
39951;DHT22;25629;51.444;-2.606;2023-07-08T04:22:44;21.60;99.90
39951;DHT22;25629;51.444;-2.606;2023-07-08T04:25:10;21.60;99.90
39951;DHT22;25629;51.444;-2.606;2023-07-08T04:27:37;21.60;99.90
39951;DHT22;25629;51.444;-2.606;2023-07-08T04:30:03;21.50;1.00
39951;DHT22;25629;51.444;-2.606;2023-07-08T04:32:29;21.60;99.90
39951;DHT22;25629;51.444;-2.606;2023-07-08T04:34:55;21.70;99.90
39951;DHT22;25629;51.444;-2.606;2023-07-08T04:37:23;21.70;99.90
39951;DHT22;25629;51.444;-2.606;2023-07-08T04:39:49;21.80;99.90
39951;DHT22;25629;51.444;-2.606;2023-07-08T04:42:14;21.90;99.90
39951;DHT22;25629;51.444;-2.606;2023-07-08T04:44:43;21.90;84.50
39951;DHT22;25629;51.444;-2.606;2023-07-08T04:47:09;22.00;1.00
39951;DHT22;25629;51.444;-2.606;2023-07-08T04:49:37;22.10;1.00
39951;DHT22;25629;51.444;-2.606;2023-07-08T04:52:03;22.20;99.90
39951;DHT22;25629;51.444;-2.606;2023-07-08T04:54:29;22.20;99.90
39951;DHT22;25629;51.444;-2.606;2023-07-08T04:56:54;22.30;1.00
39951;DHT22;25629;51.444;-2.606;2023-07-08T04:59:21;22.40;1.00
39951;DHT22;25629;51.444;-2.606;2023-07-08T05:01:49;22.40;99.90
39951;DHT22;25629;51.444;-2.606;2023-07-08T05:04:18;22.40;99.90
39951;DHT22;25629;51.444;-2.606;2023-07-08T05:06:44;22.50;99.90
39951;DHT22;25629;51.444;-2.606;2023-07-08T05:09:10;22.50;99.90
39951;DHT22;25629;51.444;-2.606;2023-07-08T05:11:38;22.50;99.90
39951;DHT22;25629;51.444;-2.606;2023-07-08T05:14:04;22.40;99.90
39951;DHT22;25629;51.444;-2.606;2023-07-08T05:16:31;22.40;99.90
39951;DHT22;25629;51.444;-2.606;2023-07-08T05:19:01;22.40;99.90
39951;DHT22;25629;51.444;-2.606;2023-07-08T05:21:28;22.40;99.90
39951;DHT22;25629;51.444;-2.606;2023-07-08T05:23:58;22.40;99.90
39951;DHT22;25629;51.444;-2.606;2023-07-08T05:26:24;22.40;99.90
39951;DHT22;25629;51.444;-2.606;2023-07-08T05:28:49;22.40;99.90
39951;DHT22;25629;51.444;-2.606;2023-07-08T05:31:15;22.30;99.90
39951;DHT22;25629;51.444;-2.606;2023-07-08T05:33:41;22.30;99.90
39951;DHT22;25629;51.444;-2.606;2023-07-08T05:36:07;22.30;99.90
39951;DHT22;25629;51.444;-2.606;2023-07-08T05:38:32;22.30;99.90
39951;DHT22;25629;51.444;-2.606;2023-07-08T05:40:58;22.30;99.90
39951;DHT22;25629;51.444;-2.606;2023-07-08T05:43:24;22.20;99.90
39951;DHT22;25629;51.444;-2.606;2023-07-08T05:45:56;22.20;99.90
39951;DHT22;25629;51.444;-2.606;2023-07-08T05:48:22;22.10;99.90
39951;DHT22;25629;51.444;-2.606;2023-07-08T05:50:50;22.10;99.90
39951;DHT22;25629;51.444;-2.606;2023-07-08T05:53:17;22.10;99.90
39951;DHT22;25629;51.444;-2.606;2023-07-08T05:55:43;22.10;99.90
39951;DHT22;25629;51.444;-2.606;2023-07-08T05:58:10;22.00;99.90
39951;DHT22;25629;51.444;-2.606;2023-07-08T06:00:36;22.00;99.90
39951;DHT22;25629;51.444;-2.606;2023-07-08T06:03:04;22.00;99.90
39951;DHT22;25629;51.444;-2.606;2023-07-08T06:05:30;21.90;99.90
39951;DHT22;25629;51.444;-2.606;2023-07-08T06:07:58;21.90;99.90
39951;DHT22;25629;51.444;-2.606;2023-07-08T06:10:24;21.90;99.90
39951;DHT22;25629;51.444;-2.606;2023-07-08T06:12:50;21.90;99.90
39951;DHT22;25629;51.444;-2.606;2023-07-08T06:15:16;22.00;99.90
39951;DHT22;25629;51.444;-2.606;2023-07-08T06:17:41;22.10;99.90
39951;DHT22;25629;51.444;-2.606;2023-07-08T06:20:07;22.20;99.90
39951;DHT22;25629;51.444;-2.606;2023-07-08T06:22:35;22.10;99.90
39951;DHT22;25629;51.444;-2.606;2023-07-08T06:25:01;22.20;99.90
39951;DHT22;25629;51.444;-2.606;2023-07-08T06:27:26;22.10;56.00
39951;DHT22;25629;51.444;-2.606;2023-07-08T06:29:53;22.10;99.90
39951;DHT22;25629;51.444;-2.606;2023-07-08T06:32:18;22.10;36.40
39951;DHT22;25629;51.444;-2.606;2023-07-08T06:34:44;22.10;99.90
39951;DHT22;25629;51.444;-2.606;2023-07-08T06:37:09;22.10;99.90
39951;DHT22;25629;51.444;-2.606;2023-07-08T06:39:35;22.00;99.90
39951;DHT22;25629;51.444;-2.606;2023-07-08T06:42:01;22.00;99.90
39951;DHT22;25629;51.444;-2.606;2023-07-08T06:44:26;21.90;1.00
39951;DHT22;25629;51.444;-2.606;2023-07-08T06:46:52;22.00;99.90
39951;DHT22;25629;51.444;-2.606;2023-07-08T06:49:18;21.90;99.90
39951;DHT22;25629;51.444;-2.606;2023-07-08T06:51:43;21.80;75.80
39951;DHT22;25629;51.444;-2.606;2023-07-08T06:54:11;21.80;74.20
39951;DHT22;25629;51.444;-2.606;2023-07-08T06:56:37;21.80;99.90
39951;DHT22;25629;51.444;-2.606;2023-07-08T06:59:04;21.50;99.90
39951;DHT22;25629;51.444;-2.606;2023-07-08T07:01:29;21.90;99.90
39951;DHT22;25629;51.444;-2.606;2023-07-08T07:03:55;21.80;1.00
39951;DHT22;25629;51.444;-2.606;2023-07-08T07:06:21;21.50;99.90
39951;DHT22;25629;51.444;-2.606;2023-07-08T07:08:46;21.80;99.90
39951;DHT22;25629;51.444;-2.606;2023-07-08T07:11:12;21.70;99.90
39951;DHT22;25629;51.444;-2.606;2023-07-08T07:13:40;21.70;99.90
39951;DHT22;25629;51.444;-2.606;2023-07-08T07:16:08;21.80;99.90
39951;DHT22;25629;51.444;-2.606;2023-07-08T07:18:36;21.80;99.90
39951;DHT22;25629;51.444;-2.606;2023-07-08T07:21:02;21.80;99.90
39951;DHT22;25629;51.444;-2.606;2023-07-08T07:23:30;21.80;99.90
39951;DHT22;25629;51.444;-2.606;2023-07-08T07:25:56;21.80;99.90
39951;DHT22;25629;51.444;-2.606;2023-07-08T07:28:22;21.90;99.90
39951;DHT22;25629;51.444;-2.606;2023-07-08T07:30:57;22.00;99.90
39951;DHT22;25629;51.444;-2.606;2023-07-08T07:33:23;21.90;2.40
39951;DHT22;25629;51.444;-2.606;2023-07-08T07:35:49;21.90;78.50
39951;DHT22;25629;51.444;-2.606;2023-07-08T07:38:15;22.00;91.00
39951;DHT22;25629;51.444;-2.606;2023-07-08T07:40:43;22.00;24.00
39951;DHT22;25629;51.444;-2.606;2023-07-08T07:43:09;21.80;1.00
39951;DHT22;25629;51.444;-2.606;2023-07-08T07:45:34;21.90;1.00
39951;DHT22;25629;51.444;-2.606;2023-07-08T07:48:00;21.80;1.00
39951;DHT22;25629;51.444;-2.606;2023-07-08T07:50:28;21.80;99.90
39951;DHT22;25629;51.444;-2.606;2023-07-08T07:52:54;21.70;99.90
39951;DHT22;25629;51.444;-2.606;2023-07-08T07:55:20;21.70;99.90
39951;DHT22;25629;51.444;-2.606;2023-07-08T07:57:45;20.80;99.90
39951;DHT22;25629;51.444;-2.606;2023-07-08T08:00:15;21.10;99.90
39951;DHT22;25629;51.444;-2.606;2023-07-08T08:02:43;21.70;99.90
39951;DHT22;25629;51.444;-2.606;2023-07-08T08:05:09;21.70;1.00
39951;DHT22;25629;51.444;-2.606;2023-07-08T08:07:34;21.60;1.00
39951;DHT22;25629;51.444;-2.606;2023-07-08T08:10:02;21.60;1.00
39951;DHT22;25629;51.444;-2.606;2023-07-08T08:12:27;21.50;1.00
39951;DHT22;25629;51.444;-2.606;2023-07-08T08:14:53;21.40;1.00
39951;DHT22;25629;51.444;-2.606;2023-07-08T08:17:19;21.20;1.00
39951;DHT22;25629;51.444;-2.606;2023-07-08T08:19:45;21.40;1.00
39951;DHT22;25629;51.444;-2.606;2023-07-08T08:22:10;21.40;1.00
39951;DHT22;25629;51.444;-2.606;2023-07-08T08:24:36;21.40;1.00
39951;DHT22;25629;51.444;-2.606;2023-07-08T08:27:04;21.30;1.00
39951;DHT22;25629;51.444;-2.606;2023-07-08T08:29:30;21.30;1.00
39951;DHT22;25629;51.444;-2.606;2023-07-08T08:31:55;21.40;1.00
39951;DHT22;25629;51.444;-2.606;2023-07-08T08:34:23;21.50;6.60
39951;DHT22;25629;51.444;-2.606;2023-07-08T08:36:49;21.50;1.00
39951;DHT22;25629;51.444;-2.606;2023-07-08T08:39:15;21.60;1.00
39951;DHT22;25629;51.444;-2.606;2023-07-08T08:41:43;21.60;1.00
39951;DHT22;25629;51.444;-2.606;2023-07-08T08:52:37;21.80;1.00
39951;DHT22;25629;51.444;-2.606;2023-07-08T08:55:33;21.90;1.00
39951;DHT22;25629;51.444;-2.606;2023-07-08T09:03:10;21.90;1.00
39951;DHT22;25629;51.444;-2.606;2023-07-08T09:05:37;22.00;1.00
39951;DHT22;25629;51.444;-2.606;2023-07-08T09:10:44;22.40;1.00
39951;DHT22;25629;51.444;-2.606;2023-07-08T09:13:53;22.70;1.00
39951;DHT22;25629;51.444;-2.606;2023-07-08T09:18:56;23.20;99.90
39951;DHT22;25629;51.444;-2.606;2023-07-08T09:24:10;23.60;99.90
39951;DHT22;25629;51.444;-2.606;2023-07-08T09:26:59;24.10;99.90
39951;DHT22;25629;51.444;-2.606;2023-07-08T09:29:25;24.60;99.90
39951;DHT22;25629;51.444;-2.606;2023-07-08T09:31:53;25.70;99.90
39951;DHT22;25629;51.444;-2.606;2023-07-08T09:34:21;25.50;57.80
39951;DHT22;25629;51.444;-2.606;2023-07-08T09:36:50;25.60;99.90
39951;DHT22;25629;51.444;-2.606;2023-07-08T09:39:26;25.80;1.00
39951;DHT22;25629;51.444;-2.606;2023-07-08T09:41:55;25.80;99.90
39951;DHT22;25629;51.444;-2.606;2023-07-08T09:46:48;25.00;1.00
39951;DHT22;25629;51.444;-2.606;2023-07-08T09:49:27;24.70;1.00
39951;DHT22;25629;51.444;-2.606;2023-07-08T09:51:53;24.00;1.00
39951;DHT22;25629;51.444;-2.606;2023-07-08T09:54:22;24.20;1.00
39951;DHT22;25629;51.444;-2.606;2023-07-08T09:56:55;24.20;1.00
39951;DHT22;25629;51.444;-2.606;2023-07-08T09:59:23;24.10;1.00
39951;DHT22;25629;51.444;-2.606;2023-07-08T10:01:59;23.90;1.00
39951;DHT22;25629;51.444;-2.606;2023-07-08T10:04:27;23.70;99.90
39951;DHT22;25629;51.444;-2.606;2023-07-08T10:06:54;23.20;1.00
39951;DHT22;25629;51.444;-2.606;2023-07-08T10:09:20;23.80;1.00
39951;DHT22;25629;51.444;-2.606;2023-07-08T10:11:54;23.40;1.00
39951;DHT22;25629;51.444;-2.606;2023-07-08T10:14:33;23.60;99.00
39951;DHT22;25629;51.444;-2.606;2023-07-08T10:17:00;23.50;99.90
39951;DHT22;25629;51.444;-2.606;2023-07-08T10:19:26;23.60;99.90
39951;DHT22;25629;51.444;-2.606;2023-07-08T10:24:33;23.60;1.00
39951;DHT22;25629;51.444;-2.606;2023-07-08T10:32:44;23.90;99.90
39951;DHT22;25629;51.444;-2.606;2023-07-08T10:35:23;24.10;99.90
39951;DHT22;25629;51.444;-2.606;2023-07-08T10:38:23;24.30;99.90
39951;DHT22;25629;51.444;-2.606;2023-07-08T10:41:18;24.00;99.90
39951;DHT22;25629;51.444;-2.606;2023-07-08T10:43:50;23.70;99.90
39951;DHT22;25629;51.444;-2.606;2023-07-08T10:56:51;23.70;99.90
39951;DHT22;25629;51.444;-2.606;2023-07-08T11:01:56;24.00;99.90
39951;DHT22;25629;51.444;-2.606;2023-07-08T11:04:31;24.20;99.90
39951;DHT22;25629;51.444;-2.606;2023-07-08T11:07:09;24.10;99.90
39951;DHT22;25629;51.444;-2.606;2023-07-08T11:09:48;24.10;1.00
39951;DHT22;25629;51.444;-2.606;2023-07-08T11:14:51;24.90;1.00
39951;DHT22;25629;51.444;-2.606;2023-07-08T11:17:21;25.30;99.90
39951;DHT22;25629;51.444;-2.606;2023-07-08T11:19:57;25.70;99.90
39951;DHT22;25629;51.444;-2.606;2023-07-08T11:22:24;25.70;98.50
39951;DHT22;25629;51.444;-2.606;2023-07-08T11:24:50;25.50;99.90
39951;DHT22;25629;51.444;-2.606;2023-07-08T11:32:18;25.10;1.00
39951;DHT22;25629;51.444;-2.606;2023-07-08T11:34:49;25.10;99.90
39951;DHT22;25629;51.444;-2.606;2023-07-08T11:37:18;25.20;99.90
39951;DHT22;25629;51.444;-2.606;2023-07-08T11:39:57;25.40;99.90
39951;DHT22;25629;51.444;-2.606;2023-07-08T11:42:46;25.40;99.90
39951;DHT22;25629;51.444;-2.606;2023-07-08T11:47:47;26.10;1.00
39951;DHT22;25629;51.444;-2.606;2023-07-08T11:50:24;25.90;1.00
39951;DHT22;25629;51.444;-2.606;2023-07-08T11:52:58;25.40;43.90
39951;DHT22;25629;51.444;-2.606;2023-07-08T11:55:26;25.30;1.00
39951;DHT22;25629;51.444;-2.606;2023-07-08T11:57:56;25.30;92.30
39951;DHT22;25629;51.444;-2.606;2023-07-08T12:00:25;24.80;99.90
39951;DHT22;25629;51.444;-2.606;2023-07-08T12:02:58;24.50;99.90
39951;DHT22;25629;51.444;-2.606;2023-07-08T12:05:36;24.30;99.90
39951;DHT22;25629;51.444;-2.606;2023-07-08T12:08:11;23.10;99.90
39951;DHT22;25629;51.444;-2.606;2023-07-08T12:10:41;23.90;1.00
39951;DHT22;25629;51.444;-2.606;2023-07-08T12:13:11;23.70;1.00
39951;DHT22;25629;51.444;-2.606;2023-07-08T12:15:46;23.50;99.90
39951;DHT22;25629;51.444;-2.606;2023-07-08T12:18:13;23.20;1.00
39951;DHT22;25629;51.444;-2.606;2023-07-08T12:20:41;23.00;1.00
39951;DHT22;25629;51.444;-2.606;2023-07-08T12:23:13;22.80;99.90
39951;DHT22;25629;51.444;-2.606;2023-07-08T12:25:47;22.60;1.00
39951;DHT22;25629;51.444;-2.606;2023-07-08T12:28:13;22.40;1.00
39951;DHT22;25629;51.444;-2.606;2023-07-08T12:30:43;22.20;2.60
39951;DHT22;25629;51.444;-2.606;2023-07-08T12:33:34;21.70;36.40
39951;DHT22;25629;51.444;-2.606;2023-07-08T12:39:10;21.70;58.60
39951;DHT22;25629;51.444;-2.606;2023-07-08T12:44:34;21.80;87.50
39951;DHT22;25629;51.444;-2.606;2023-07-08T12:47:02;21.90;88.20
39951;DHT22;25629;51.444;-2.606;2023-07-08T12:49:28;22.00;67.80
39951;DHT22;25629;51.444;-2.606;2023-07-08T12:51:55;22.00;62.90
39951;DHT22;25629;51.444;-2.606;2023-07-08T12:54:28;21.90;58.80
39951;DHT22;25629;51.444;-2.606;2023-07-08T12:56:53;21.90;66.70
39951;DHT22;25629;51.444;-2.606;2023-07-08T12:59:20;21.90;65.10
39951;DHT22;25629;51.444;-2.606;2023-07-08T13:01:47;21.90;77.60
39951;DHT22;25629;51.444;-2.606;2023-07-08T13:04:13;21.40;74.60
39951;DHT22;25629;51.444;-2.606;2023-07-08T13:06:39;22.20;76.20
39951;DHT22;25629;51.444;-2.606;2023-07-08T13:09:23;22.30;55.50
39951;DHT22;25629;51.444;-2.606;2023-07-08T13:11:53;22.20;40.80
39951;DHT22;25629;51.444;-2.606;2023-07-08T13:14:24;22.40;54.90
39951;DHT22;25629;51.444;-2.606;2023-07-08T13:16:51;22.40;26.20
39951;DHT22;25629;51.444;-2.606;2023-07-08T13:19:19;22.90;22.10
39951;DHT22;25629;51.444;-2.606;2023-07-08T13:21:45;23.70;7.10
39951;DHT22;25629;51.444;-2.606;2023-07-08T13:24:14;23.90;1.00
39951;DHT22;25629;51.444;-2.606;2023-07-08T13:26:40;24.30;1.00
39951;DHT22;25629;51.444;-2.606;2023-07-08T13:29:13;24.90;99.90
39951;DHT22;25629;51.444;-2.606;2023-07-08T13:31:52;25.40;99.90
39951;DHT22;25629;51.444;-2.606;2023-07-08T13:34:19;25.20;1.00
39951;DHT22;25629;51.444;-2.606;2023-07-08T13:36:45;24.70;3.50
39951;DHT22;25629;51.444;-2.606;2023-07-08T13:39:19;24.10;99.90
39951;DHT22;25629;51.444;-2.606;2023-07-08T13:41:47;23.80;99.90
39951;DHT22;25629;51.444;-2.606;2023-07-08T13:44:13;23.70;1.00
39951;DHT22;25629;51.444;-2.606;2023-07-08T13:46:40;23.90;99.90
39951;DHT22;25629;51.444;-2.606;2023-07-08T13:49:13;24.50;1.00
39951;DHT22;25629;51.444;-2.606;2023-07-08T13:51:45;25.30;45.80
39951;DHT22;25629;51.444;-2.606;2023-07-08T13:54:16;26.20;1.00
39951;DHT22;25629;51.444;-2.606;2023-07-08T13:56:47;27.60;99.90
39951;DHT22;25629;51.444;-2.606;2023-07-08T13:59:33;28.60;99.90
39951;DHT22;25629;51.444;-2.606;2023-07-08T14:02:06;29.00;1.00
39951;DHT22;25629;51.444;-2.606;2023-07-08T14:04:47;29.10;1.00
39951;DHT22;25629;51.444;-2.606;2023-07-08T14:07:17;28.80;1.00
39951;DHT22;25629;51.444;-2.606;2023-07-08T14:09:53;29.00;1.00
39951;DHT22;25629;51.444;-2.606;2023-07-08T14:12:22;29.00;1.00
39951;DHT22;25629;51.444;-2.606;2023-07-08T14:14:52;28.20;1.00
39951;DHT22;25629;51.444;-2.606;2023-07-08T14:17:23;27.10;32.20
39951;DHT22;25629;51.444;-2.606;2023-07-08T14:19:49;26.30;99.90
39951;DHT22;25629;51.444;-2.606;2023-07-08T14:22:19;25.70;1.00
39951;DHT22;25629;51.444;-2.606;2023-07-08T14:24:49;25.30;99.90
39951;DHT22;25629;51.444;-2.606;2023-07-08T14:27:14;24.90;99.90
39951;DHT22;25629;51.444;-2.606;2023-07-08T14:29:42;24.90;99.90
39951;DHT22;25629;51.444;-2.606;2023-07-08T14:32:29;24.70;1.00
39951;DHT22;25629;51.444;-2.606;2023-07-08T14:34:57;24.10;54.70
39951;DHT22;25629;51.444;-2.606;2023-07-08T14:37:24;24.10;1.00
39951;DHT22;25629;51.444;-2.606;2023-07-08T14:39:53;24.60;1.00
39951;DHT22;25629;51.444;-2.606;2023-07-08T14:42:29;24.90;1.00
39951;DHT22;25629;51.444;-2.606;2023-07-08T14:44:55;24.90;99.90
39951;DHT22;25629;51.444;-2.606;2023-07-08T14:47:23;24.50;99.90
39951;DHT22;25629;51.444;-2.606;2023-07-08T14:49:48;23.80;99.90
39951;DHT22;25629;51.444;-2.606;2023-07-08T14:52:14;23.80;1.00
39951;DHT22;25629;51.444;-2.606;2023-07-08T14:54:40;22.80;1.00
39951;DHT22;25629;51.444;-2.606;2023-07-08T14:57:06;23.30;1.00
39951;DHT22;25629;51.444;-2.606;2023-07-08T14:59:32;23.10;1.00
39951;DHT22;25629;51.444;-2.606;2023-07-08T15:01:59;22.90;1.00
39951;DHT22;25629;51.444;-2.606;2023-07-08T15:07:20;22.70;41.10
39951;DHT22;25629;51.444;-2.606;2023-07-08T15:09:48;22.50;52.70
39951;DHT22;25629;51.444;-2.606;2023-07-08T15:12:17;22.50;65.00
39951;DHT22;25629;51.444;-2.606;2023-07-08T15:15:15;22.40;73.00
39951;DHT22;25629;51.444;-2.606;2023-07-08T15:33:29;22.20;91.70
39951;DHT22;25629;51.444;-2.606;2023-07-08T15:35:55;22.40;97.70
39951;DHT22;25629;51.444;-2.606;2023-07-08T15:38:21;22.50;92.10
39951;DHT22;25629;51.444;-2.606;2023-07-08T15:40:46;22.60;95.60
39951;DHT22;25629;51.444;-2.606;2023-07-08T15:43:13;22.60;90.60
39951;DHT22;25629;51.444;-2.606;2023-07-08T15:46:03;22.70;83.90
39951;DHT22;25629;51.444;-2.606;2023-07-08T15:48:29;22.60;70.40
39951;DHT22;25629;51.444;-2.606;2023-07-08T15:50:54;22.50;71.70
39951;DHT22;25629;51.444;-2.606;2023-07-08T15:53:20;22.40;79.80
39951;DHT22;25629;51.444;-2.606;2023-07-08T15:55:46;22.60;86.60
39951;DHT22;25629;51.444;-2.606;2023-07-08T15:58:21;22.90;57.90
39951;DHT22;25629;51.444;-2.606;2023-07-08T16:00:48;23.10;28.30
39951;DHT22;25629;51.444;-2.606;2023-07-08T16:03:18;23.60;20.00
39951;DHT22;25629;51.444;-2.606;2023-07-08T16:05:46;24.00;1.00
39951;DHT22;25629;51.444;-2.606;2023-07-08T16:08:12;24.20;1.00
39951;DHT22;25629;51.444;-2.606;2023-07-08T16:10:37;23.60;1.00
39951;DHT22;25629;51.444;-2.606;2023-07-08T16:13:03;23.20;1.00
39951;DHT22;25629;51.444;-2.606;2023-07-08T16:15:34;22.70;1.00
39951;DHT22;25629;51.444;-2.606;2023-07-08T16:18:00;22.40;13.70
39951;DHT22;25629;51.444;-2.606;2023-07-08T16:20:26;22.10;36.30
39951;DHT22;25629;51.444;-2.606;2023-07-08T16:22:52;21.90;55.80
39951;DHT22;25629;51.444;-2.606;2023-07-08T16:25:23;21.80;79.50
39951;DHT22;25629;51.444;-2.606;2023-07-08T16:27:50;21.80;83.40
39951;DHT22;25629;51.444;-2.606;2023-07-08T16:30:17;22.00;76.40
39951;DHT22;25629;51.444;-2.606;2023-07-08T16:32:42;22.30;53.40
39951;DHT22;25629;51.444;-2.606;2023-07-08T16:35:12;22.50;44.50
39951;DHT22;25629;51.444;-2.606;2023-07-08T16:37:38;22.50;45.80
39951;DHT22;25629;51.444;-2.606;2023-07-08T16:40:06;22.60;40.80
39951;DHT22;25629;51.444;-2.606;2023-07-08T16:42:35;22.40;40.70
39951;DHT22;25629;51.444;-2.606;2023-07-08T16:45:01;22.20;44.20
39951;DHT22;25629;51.444;-2.606;2023-07-08T16:47:27;22.00;54.40
39951;DHT22;25629;51.444;-2.606;2023-07-08T16:49:52;21.70;53.20
39951;DHT22;25629;51.444;-2.606;2023-07-08T16:52:18;21.70;64.20
39951;DHT22;25629;51.444;-2.606;2023-07-08T16:54:44;21.50;60.80